Tim Quigg — WDB6570 — position and weather

sailwx.info

Track history (hours):
 
Tides and Currents Weather Stations Pressure Air Temp Water Temp Dewpoint Dewpoint Depression Visibility Wind Speed Wind Dir Waves Ship Positions

Tim Quigg

Owner: Harley Marine Services, Inc, Seattle, WA. More information available from US FCC via Universal Licensing System and Coast Guard Vessel Documentation Center.

Last reported at 2014-Dec-18 03:31 UTC. Time now 2014-Dec-18 05:47 UTC.
Position N 33°45' W 118°16'.

; draft 7.5 m.

Type: Tug. MMSI: 366926740.

Date/timePositionNaut miles runAvg speedWind from/ knotsBaromVisibWave heightAir tempDewpointWater temp
2014-Dec-18 03:31N 33°45' W 118°16'1 0.1
2014-Dec-17 23:32N 33°45' W 118°16'3 1.6
2014-Dec-17 21:27N 33°44' W 118°12'1 0.7
2014-Dec-17 20:04N 33°44' W 118°11'1 0.1
2014-Dec-17 08:24N 33°44' W 118°11'2 0.8
2014-Dec-17 06:33N 33°44' W 118°13'3 0.7
2014-Dec-17 02:32N 33°45' W 118°16'5 0.6
2014-Dec-16 19:31N 33°44' W 118°11'3 2.7
2014-Dec-16 18:33N 33°45' W 118°13'2 1.1
2014-Dec-16 16:33N 33°46' W 118°16'3 1.8
2014-Dec-16 15:10N 33°44' W 118°13'2 3.5
2014-Dec-16 14:33N 33°46' W 118°13'1 0.6
2014-Dec-16 13:33N 33°46' W 118°13'3 2.5
2014-Dec-16 12:33N 33°44' W 118°11'1 0.3
2014-Dec-16 08:08N 33°44' W 118°13'1 0.0
2014-Dec-15 15:32N 33°45' W 118°13'0 0.1
2014-Dec-15 14:16N 33°45' W 118°13'1 1.0
2014-Dec-15 13:33N 33°46' W 118°13'0 0.0
2014-Dec-15 12:33N 33°45' W 118°13'2 1.6
2014-Dec-15 11:28N 33°44' W 118°12'3 0.7
2014-Dec-15 06:32N 33°45' W 118°16'2 0.6
2014-Dec-15 02:31N 33°45' W 118°13'0 0.2
2014-Dec-15 01:33N 33°45' W 118°13'2 0.4
2014-Dec-14 19:33N 33°46' W 118°16'4 0.7
2014-Dec-14 13:32N 33°44' W 118°11'0 0.1
2014-Dec-14 11:32N 33°44' W 118°12'1 0.4
2014-Dec-14 08:26N 33°44' W 118°10'3 3.8
2014-Dec-14 07:33N 33°46' W 118°13'3 0.6
2014-Dec-14 03:24N 33°45' W 118°16'1 0.9
2014-Dec-14 02:32N 33°46' W 118°16'2 0.8
2014-Dec-14 00:17N 33°44' W 118°16'2 2.7
2014-Dec-13 23:33N 33°46' W 118°15'3 0.6
2014-Dec-13 19:25N 33°44' W 118°13'3 0.6
2014-Dec-13 14:12N 33°45' W 118°16'1 0.9
2014-Dec-13 13:31N 33°46' W 118°17'0 0.0
2014-Dec-13 11:33N 33°46' W 118°17'1 0.7
2014-Dec-13 10:32N 33°45' W 118°16'1 0.2
2014-Dec-13 03:10N 33°44' W 118°16'0 0.0
2014-Dec-12 20:09N 33°44' W 118°16'3 2.4
2014-Dec-12 19:05N 33°44' W 118°13'2 1.9
2014-Dec-12 18:06N 33°45' W 118°11'1 0.5
2014-Dec-12 15:19N 33°44' W 118°12'3 1.3
2014-Dec-12 13:11N 33°44' W 118°16'2 0.2
2014-Dec-12 01:33N 33°44' W 118°13'0 0.0
2014-Dec-11 23:12N 33°44' W 118°13'3 4.0
2014-Dec-11 22:33N 33°46' W 118°13'0 0.4
2014-Dec-11 21:33N 33°46' W 118°13'2 0.8
2014-Dec-11 19:33N 33°45' W 118°13'1 1.4
2014-Dec-11 18:33N 33°44' W 118°11'5 0.5
2014-Dec-11 09:33N 33°45' W 118°17'2 0.7
2014-Dec-11 07:05N 33°44' W 118°16'0 0.0
2014-Dec-11 06:31N 33°44' W 118°16'0 0.0
2014-Dec-11 05:29N 33°44' W 118°16'0 0.0
2014-Dec-11 04:32N 33°44' W 118°16'0 0.0
2014-Dec-11 03:33N 33°44' W 118°16'1 1.4
2014-Dec-11 02:33N 33°43' W 118°14'2 2.3
2014-Dec-11 01:33N 33°45' W 118°12'1 0.7
2014-Dec-11 00:34N 33°44' W 118°12'1 1.1
2014-Dec-10 23:34N 33°45' W 118°12'1 1.1
2014-Dec-10 22:33N 33°44' W 118°13'0 0.3
2014-Dec-10 21:33N 33°44' W 118°13'1 0.2
2014-Dec-10 15:06N 33°45' W 118°13'1 1.2
2014-Dec-10 14:25N 33°45' W 118°14'2 2.6
2014-Dec-10 13:33N 33°44' W 118°12'2 2.3
2014-Dec-10 12:33N 33°43' W 118°14'1 1.4
2014-Dec-10 11:33N 33°44' W 118°16'0 0.0
2014-Dec-10 10:33N 33°44' W 118°16'0 0.4
2014-Dec-10 09:31N 33°44' W 118°15'0 0.0
2014-Dec-10 08:33N 33°44' W 118°15'0 0.0
2014-Dec-10 07:33N 33°44' W 118°15'2 1.5
2014-Dec-10 06:32N 33°43' W 118°14'2 1.9
2014-Dec-10 05:33N 33°44' W 118°16'0 0.0
2014-Dec-10 04:33N 33°44' W 118°16'0 0.0
2014-Dec-10 03:33N 33°44' W 118°16'0 0.0
2014-Dec-10 02:33N 33°44' W 118°16'0 0.0
2014-Dec-10 01:33N 33°44' W 118°16'0 0.0
2014-Dec-10 00:33N 33°44' W 118°16'1 0.7
2014-Dec-09 23:33N 33°43' W 118°16'5 4.7
2014-Dec-09 22:33N 33°44' W 118°10'3 3.2
2014-Dec-09 21:33N 33°43' W 118°14'2 0.5
2014-Dec-09 18:29N 33°44' W 118°16'0 0.0
2014-Dec-09 17:33N 33°44' W 118°16'5 4.7
2014-Dec-09 16:33N 33°44' W 118°10'3 3.2
2014-Dec-09 15:33N 33°43' W 118°06'2 1.9
2014-Dec-09 14:27N 33°44' W 118°09'3 2.8
2014-Dec-09 13:32N 33°45' W 118°12'0 0.0
2014-Dec-09 12:28N 33°45' W 118°12'0 0.0
2014-Dec-09 11:33N 33°45' W 118°12'0 0.0
2014-Dec-09 10:33N 33°45' W 118°12'3 2.8
2014-Dec-09 09:33N 33°43' W 118°14'1 1.4
2014-Dec-09 08:33N 33°44' W 118°16'0 0.0
2014-Dec-09 07:33N 33°44' W 118°16'0 0.0
2014-Dec-09 06:33N 33°44' W 118°16'0 0.0
2014-Dec-09 05:33N 33°44' W 118°16'0 0.0
2014-Dec-09 04:33N 33°44' W 118°16'0 0.0
2014-Dec-09 03:28N 33°44' W 118°16'0 0.0
2014-Dec-09 02:33N 33°44' W 118°16'0 0.2
2014-Dec-09 01:33N 33°44' W 118°16'3 3.4
2014-Dec-09 00:33N 33°46' W 118°13'0 0.0
2014-Dec-08 23:33N 33°46' W 118°13'2 1.6
2014-Dec-08 22:33N 33°45' W 118°12'2 1.7
2014-Dec-08 21:33N 33°46' W 118°13'0 0.0
2014-Dec-08 20:33N 33°46' W 118°13'0 0.0
2014-Dec-08 19:33N 33°46' W 118°13'3 2.5
2014-Dec-08 18:16N 33°43' W 118°14'2 2.0
2014-Dec-08 17:30N 33°44' W 118°16'0 0.0
2014-Dec-08 16:32N 33°44' W 118°16'0 0.0
2014-Dec-08 15:33N 33°44' W 118°16'2 1.5
2014-Dec-08 14:31N 33°44' W 118°14'1 1.5
2014-Dec-08 13:33N 33°45' W 118°13'2 1.4
2014-Dec-08 12:30N 33°44' W 118°12'3 3.1
2014-Dec-08 11:33N 33°44' W 118°16'0 0.0
2014-Dec-08 10:33N 33°44' W 118°16'0 0.0
2014-Dec-08 09:33N 33°44' W 118°16'0 0.0
2014-Dec-08 08:28N 33°44' W 118°16'2 2.3
2014-Dec-08 07:33N 33°46' W 118°16'3 3.2
2014-Dec-08 06:33N 33°43' W 118°15'1 1.2
2014-Dec-08 05:33N 33°44' W 118°16'0 0.0
2014-Dec-08 04:33N 33°44' W 118°16'0 0.0
2014-Dec-08 03:33N 33°44' W 118°16'  
Track history (hours):
 
Tides and Currents Weather Stations Pressure Air Temp Water Temp Dewpoint Dewpoint Depression Visibility Wind Speed Wind Dir Waves Ship Positions

Tim Quigg

Owner: Harley Marine Services, Inc, Seattle, WA. More information available from US FCC via Universal Licensing System and Coast Guard Vessel Documentation Center.

Last reported at 2014-Dec-18 03:31 UTC. Time now 2014-Dec-18 05:47 UTC.
Position N 33°45' W 118°16'.

; draft 7.5 m.

Type: Tug. MMSI: 366926740.

Date/timePositionNaut miles runAvg speedWind from/ knotsBaromVisibWave heightAir tempDewpointWater temp
2014-Dec-18 03:31N 33°45' W 118°16'1 0.1
2014-Dec-17 23:32N 33°45' W 118°16'3 1.6
2014-Dec-17 21:27N 33°44' W 118°12'1 0.7
2014-Dec-17 20:04N 33°44' W 118°11'1 0.1
2014-Dec-17 08:24N 33°44' W 118°11'2 0.8
2014-Dec-17 06:33N 33°44' W 118°13'3 0.7
2014-Dec-17 02:32N 33°45' W 118°16'5 0.6
2014-Dec-16 19:31N 33°44' W 118°11'3 2.7
2014-Dec-16 18:33N 33°45' W 118°13'2 1.1
2014-Dec-16 16:33N 33°46' W 118°16'3 1.8
2014-Dec-16 15:10N 33°44' W 118°13'2 3.5
2014-Dec-16 14:33N 33°46' W 118°13'1 0.6
2014-Dec-16 13:33N 33°46' W 118°13'3 2.5
2014-Dec-16 12:33N 33°44' W 118°11'1 0.3
2014-Dec-16 08:08N 33°44' W 118°13'1 0.0
2014-Dec-15 15:32N 33°45' W 118°13'0 0.1
2014-Dec-15 14:16N 33°45' W 118°13'1 1.0
2014-Dec-15 13:33N 33°46' W 118°13'0 0.0
2014-Dec-15 12:33N 33°45' W 118°13'2 1.6
2014-Dec-15 11:28N 33°44' W 118°12'3 0.7
2014-Dec-15 06:32N 33°45' W 118°16'2 0.6
2014-Dec-15 02:31N 33°45' W 118°13'0 0.2
2014-Dec-15 01:33N 33°45' W 118°13'2 0.4
2014-Dec-14 19:33N 33°46' W 118°16'4 0.7
2014-Dec-14 13:32N 33°44' W 118°11'0 0.1
2014-Dec-14 11:32N 33°44' W 118°12'1 0.4
2014-Dec-14 08:26N 33°44' W 118°10'3 3.8
2014-Dec-14 07:33N 33°46' W 118°13'3 0.6
2014-Dec-14 03:24N 33°45' W 118°16'1 0.9
2014-Dec-14 02:32N 33°46' W 118°16'2 0.8
2014-Dec-14 00:17N 33°44' W 118°16'2 2.7
2014-Dec-13 23:33N 33°46' W 118°15'3 0.6
2014-Dec-13 19:25N 33°44' W 118°13'3 0.6
2014-Dec-13 14:12N 33°45' W 118°16'1 0.9
2014-Dec-13 13:31N 33°46' W 118°17'0 0.0
2014-Dec-13 11:33N 33°46' W 118°17'1 0.7
2014-Dec-13 10:32N 33°45' W 118°16'1 0.2
2014-Dec-13 03:10N 33°44' W 118°16'0 0.0
2014-Dec-12 20:09N 33°44' W 118°16'3 2.4
2014-Dec-12 19:05N 33°44' W 118°13'2 1.9
2014-Dec-12 18:06N 33°45' W 118°11'1 0.5
2014-Dec-12 15:19N 33°44' W 118°12'3 1.3
2014-Dec-12 13:11N 33°44' W 118°16'2 0.2
2014-Dec-12 01:33N 33°44' W 118°13'0 0.0
2014-Dec-11 23:12N 33°44' W 118°13'3 4.0
2014-Dec-11 22:33N 33°46' W 118°13'0 0.4
2014-Dec-11 21:33N 33°46' W 118°13'2 0.8
2014-Dec-11 19:33N 33°45' W 118°13'1 1.4
2014-Dec-11 18:33N 33°44' W 118°11'5 0.5
2014-Dec-11 09:33N 33°45' W 118°17'2 0.7
2014-Dec-11 07:05N 33°44' W 118°16'0 0.0
2014-Dec-11 06:31N 33°44' W 118°16'0 0.0
2014-Dec-11 05:29N 33°44' W 118°16'0 0.0
2014-Dec-11 04:32N 33°44' W 118°16'0 0.0
2014-Dec-11 03:33N 33°44' W 118°16'1 1.4
2014-Dec-11 02:33N 33°43' W 118°14'2 2.3
2014-Dec-11 01:33N 33°45' W 118°12'1 0.7
2014-Dec-11 00:34N 33°44' W 118°12'1 1.1
2014-Dec-10 23:34N 33°45' W 118°12'1 1.1
2014-Dec-10 22:33N 33°44' W 118°13'0 0.3
2014-Dec-10 21:33N 33°44' W 118°13'1 0.2
2014-Dec-10 15:06N 33°45' W 118°13'1 1.2
2014-Dec-10 14:25N 33°45' W 118°14'2 2.6
2014-Dec-10 13:33N 33°44' W 118°12'2 2.3
2014-Dec-10 12:33N 33°43' W 118°14'1 1.4
2014-Dec-10 11:33N 33°44' W 118°16'0 0.0
2014-Dec-10 10:33N 33°44' W 118°16'0 0.4
2014-Dec-10 09:31N 33°44' W 118°15'0 0.0
2014-Dec-10 08:33N 33°44' W 118°15'0 0.0
2014-Dec-10 07:33N 33°44' W 118°15'2 1.5
2014-Dec-10 06:32N 33°43' W 118°14'2 1.9
2014-Dec-10 05:33N 33°44' W 118°16'0 0.0
2014-Dec-10 04:33N 33°44' W 118°16'0 0.0
2014-Dec-10 03:33N 33°44' W 118°16'0 0.0
2014-Dec-10 02:33N 33°44' W 118°16'0 0.0
2014-Dec-10 01:33N 33°44' W 118°16'0 0.0
2014-Dec-10 00:33N 33°44' W 118°16'1 0.7
2014-Dec-09 23:33N 33°43' W 118°16'5 4.7
2014-Dec-09 22:33N 33°44' W 118°10'3 3.2
2014-Dec-09 21:33N 33°43' W 118°14'2 0.5
2014-Dec-09 18:29N 33°44' W 118°16'0 0.0
2014-Dec-09 17:33N 33°44' W 118°16'5 4.7
2014-Dec-09 16:33N 33°44' W 118°10'3 3.2
2014-Dec-09 15:33N 33°43' W 118°06'2 1.9
2014-Dec-09 14:27N 33°44' W 118°09'3 2.8
2014-Dec-09 13:32N 33°45' W 118°12'0 0.0
2014-Dec-09 12:28N 33°45' W 118°12'0 0.0
2014-Dec-09 11:33N 33°45' W 118°12'0 0.0
2014-Dec-09 10:33N 33°45' W 118°12'3 2.8
2014-Dec-09 09:33N 33°43' W 118°14'1 1.4
2014-Dec-09 08:33N 33°44' W 118°16'0 0.0
2014-Dec-09 07:33N 33°44' W 118°16'0 0.0
2014-Dec-09 06:33N 33°44' W 118°16'0 0.0
2014-Dec-09 05:33N 33°44' W 118°16'0 0.0
2014-Dec-09 04:33N 33°44' W 118°16'0 0.0
2014-Dec-09 03:28N 33°44' W 118°16'0 0.0
2014-Dec-09 02:33N 33°44' W 118°16'0 0.2
2014-Dec-09 01:33N 33°44' W 118°16'3 3.4
2014-Dec-09 00:33N 33°46' W 118°13'0 0.0
2014-Dec-08 23:33N 33°46' W 118°13'2 1.6
2014-Dec-08 22:33N 33°45' W 118°12'2 1.7
2014-Dec-08 21:33N 33°46' W 118°13'0 0.0
2014-Dec-08 20:33N 33°46' W 118°13'0 0.0
2014-Dec-08 19:33N 33°46' W 118°13'3 2.5
2014-Dec-08 18:16N 33°43' W 118°14'2 2.0
2014-Dec-08 17:30N 33°44' W 118°16'0 0.0
2014-Dec-08 16:32N 33°44' W 118°16'0 0.0
2014-Dec-08 15:33N 33°44' W 118°16'2 1.5
2014-Dec-08 14:31N 33°44' W 118°14'1 1.5
2014-Dec-08 13:33N 33°45' W 118°13'2 1.4
2014-Dec-08 12:30N 33°44' W 118°12'3 3.1
2014-Dec-08 11:33N 33°44' W 118°16'0 0.0
2014-Dec-08 10:33N 33°44' W 118°16'0 0.0
2014-Dec-08 09:33N 33°44' W 118°16'0 0.0
2014-Dec-08 08:28N 33°44' W 118°16'2 2.3
2014-Dec-08 07:33N 33°46' W 118°16'3 3.2
2014-Dec-08 06:33N 33°43' W 118°15'1 1.2
2014-Dec-08 05:33N 33°44' W 118°16'0 0.0
2014-Dec-08 04:33N 33°44' W 118°16'0 0.0
2014-Dec-08 03:33N 33°44' W 118°16'  

Dump ship's entire track history